Time;durP1;ratioP1;P1;durP2;ratioP2;P2;SDS_P1;SDS_P2;PMS_P1;PMS_P2;Temp;Humidity;BMP_temperature;BMP_pressure;BME280_temperature;BME280_humidity;BME280_pressure;Samples;Min_cycle;Max_cycle;Signal;HPM_P1;HPM_P2
2022/06/04 00:01:46;;;;;;;;;23.67;20.33;;;;;19.42;63.67;101221.28;5059881;28;45545;-44
2022/06/04 00:04:12;;;;;;;;;24.67;22.00;;;;;19.39;63.89;101218.84;5058588;28;56244;-43
2022/06/04 00:06:38;;;;;;;;;21.00;21.00;;;;;19.39;64.37;101228.78;5066279;28;45523;-43
2022/06/04 00:09:05;;;;;;;;;21.67;20.33;;;;;19.32;63.97;101221.19;5069293;28;72810;-43
2022/06/04 00:15:29;;;;;;;;;21.67;18.67;;;;;19.27;64.05;101218.00;5070309;28;45436;-43
2022/06/04 00:17:04;;;;;;;;;19.00;19.00;;;;;19.26;64.83;101212.75;5058506;27;45339;-43
2022/06/04 00:19:29;;;;;;;;;25.00;22.33;;;;;19.26;64.04;101216.28;5068120;28;46129;-44
2022/06/04 00:21:54;;;;;;;;;26.33;24.33;;;;;19.26;63.97;101218.13;5051140;28;56889;-43
2022/06/04 00:24:20;;;;;;;;;25.67;22.00;;;;;19.25;64.12;101217.25;5064416;28;62868;-44
2022/06/04 00:26:45;;;;;;;;;27.33;24.00;;;;;19.25;64.43;101216.41;5063821;28;65069;-43
2022/06/04 00:29:12;;;;;;;;;26.67;21.00;;;;;19.19;64.05;101217.78;5063199;28;68567;-43
2022/06/04 00:31:37;;;;;;;;;26.33;23.33;;;;;19.17;64.24;101219.72;5059470;28;45308;-43
2022/06/04 00:34:04;;;;;;;;;22.67;19.67;;;;;19.14;64.31;101226.22;5068980;28;59080;-43
2022/06/04 00:36:31;;;;;;;;;23.33;23.33;;;;;19.12;64.28;101240.78;5059605;28;45295;-45
2022/06/04 00:38:58;;;;;;;;;26.33;24.67;;;;;19.11;64.29;101242.66;5060889;28;46138;-43
2022/06/04 00:41:39;;;;;;;;;24.67;23.00;;;;;19.08;64.51;101237.47;5064580;28;45491;-43
2022/06/04 00:44:10;;;;;;;;;24.00;24.00;;;;;19.07;64.44;101224.97;5043735;28;45531;-43
2022/06/04 00:46:41;;;;;;;;;28.33;24.00;;;;;19.07;64.51;101210.66;5053133;28;45320;-43
2022/06/04 00:49:20;;;;;;;;;20.00;20.00;;;;;19.01;64.49;101202.06;5051207;28;46256;-44
2022/06/04 00:51:49;;;;;;;;;26.00;24.00;;;;;18.95;64.74;101199.00;5068613;28;45343;-44
2022/06/04 00:54:14;;;;;;;;;19.33;19.33;;;;;18.95;64.51;101189.06;5046791;28;45213;-44
2022/06/04 00:56:43;;;;;;;;;22.67;22.33;;;;;18.96;64.62;101184.56;5053961;28;50086;-43
2022/06/04 00:59:29;;;;;;;;;28.00;22.00;;;;;18.92;64.82;101181.25;5060406;28;45436;-43
2022/06/04 01:02:00;;;;;;;;;26.33;26.33;;;;;18.89;65.23;101173.41;5071851;28;45371;-44
2022/06/04 01:04:47;;;;;;;;;24.00;22.33;;;;;18.88;64.79;101182.44;5065063;28;45339;-44
2022/06/04 01:07:43;;;;;;;;;27.67;25.33;;;;;18.88;64.67;101190.53;5054542;28;45659;-43
2022/06/04 01:10:33;;;;;;;;;21.67;20.33;;;;;18.87;64.94;101186.09;5060654;28;46421;-43
2022/06/04 01:12:59;;;;;;;;;28.00;25.33;;;;;18.89;64.68;101180.59;5065930;28;45395;-43
2022/06/04 01:15:27;;;;;;;;;27.00;24.00;;;;;18.88;64.89;101170.78;5059077;28;45237;-44
2022/06/04 01:18:08;;;;;;;;;24.67;23.33;;;;;18.91;64.97;101175.97;5040513;28;45457;-43
2022/06/04 01:20:36;;;;;;;;;23.67;21.67;;;;;18.90;65.10;101171.56;5060245;28;46427;-44
2022/06/04 01:23:26;;;;;;;;;25.67;24.67;;;;;18.88;64.81;101168.97;5059699;28;45431;-43
2022/06/04 01:26:05;;;;;;;;;23.33;23.33;;;;;18.88;64.67;101171.66;5078809;27;45408;-43
2022/06/04 01:28:32;;;;;;;;;30.67;25.67;;;;;18.88;64.63;101168.97;5038544;28;45230;-43
2022/06/04 01:31:03;;;;;;;;;22.67;21.33;;;;;18.88;64.97;101157.31;5054547;28;67979;-44
2022/06/04 01:33:34;;;;;;;;;21.00;21.00;;;;;18.87;64.75;101144.84;5059005;28;45351;-43
2022/06/04 01:36:13;;;;;;;;;21.67;21.33;;;;;18.84;64.65;101141.38;5043694;28;45424;-43
2022/06/04 01:38:51;;;;;;;;;26.00;25.67;;;;;18.84;64.92;101137.84;5065826;28;45343;-44
2022/06/04 01:41:28;;;;;;;;;28.33;25.33;;;;;18.83;64.93;101152.31;5040828;28;46467;-43
2022/06/04 01:44:21;;;;;;;;;27.67;24.33;;;;;18.79;64.82;101140.91;5025642;28;45686;-43
2022/06/04 01:46:51;;;;;;;;;20.33;20.00;;;;;18.79;65.29;101140.06;5038430;28;45351;-43
2022/06/04 01:49:32;;;;;;;;;29.00;28.00;;;;;18.80;65.15;101141.78;5030858;28;45561;-44
2022/06/04 01:52:03;;;;;;;;;24.00;23.33;;;;;18.79;64.89;101134.66;5067379;28;46199;-44
2022/06/04 01:54:36;;;;;;;;;23.00;22.67;;;;;18.79;65.67;101130.13;5061858;28;45343;-44
2022/06/04 01:57:07;;;;;;;;;23.33;19.33;;;;;18.76;65.03;101135.75;5058807;28;45336;-44
2022/06/04 01:59:38;;;;;;;;;21.33;20.67;;;;;18.72;65.29;101142.38;5047509;28;45482;-44
2022/06/04 02:02:07;;;;;;;;;18.33;17.00;;;;;18.67;65.05;101148.13;5058656;28;46204;-43
2022/06/04 02:04:38;;;;;;;;;30.33;20.67;;;;;18.62;65.61;101153.00;5073868;28;45468;-44
2022/06/04 02:07:31;;;;;;;;;25.33;22.33;;;;;18.62;65.45;101157.56;5060954;28;45205;-44
2022/06/04 02:10:03;;;;;;;;;23.00;22.00;;;;;18.65;65.32;101154.59;5053000;28;45368;-45
2022/06/04 02:12:29;;;;;;;;;25.00;24.67;;;;;18.67;65.23;101152.66;5055857;28;47187;-44
2022/06/04 02:14:54;;;;;;;;;24.00;23.00;;;;;18.70;65.26;101162.34;5063027;28;45675;-44
2022/06/04 02:17:22;;;;;;;;;24.33;22.33;;;;;18.67;65.23;101156.19;5067882;28;68132;-44
2022/06/04 02:19:47;;;;;;;;;21.00;21.00;;;;;18.67;65.06;101163.44;5063794;28;45438;-44
2022/06/04 02:22:13;;;;;;;;;22.33;19.67;;;;;18.67;65.01;101174.22;5065366;28;73310;-44
2022/06/04 02:24:39;;;;;;;;;21.67;21.67;;;;;18.67;65.24;101172.38;5060447;28;71033;-44
2022/06/04 02:27:08;;;;;;;;;19.33;19.00;;;;;18.68;65.28;101174.09;5039829;28;45193;-43
2022/06/04 02:29:34;;;;;;;;;24.33;22.67;;;;;18.68;65.00;101157.94;5078978;27;45368;-43
2022/06/04 02:31:59;;;;;;;;;22.00;20.00;;;;;18.67;65.49;101142.72;5065122;28;45468;-44
2022/06/04 02:34:38;;;;;;;;;19.33;19.33;;;;;18.66;65.26;101130.22;5060965;28;45384;-44
2022/06/04 02:37:18;;;;;;;;;21.67;21.00;;;;;18.65;65.35;101122.28;5061160;28;45403;-44
2022/06/04 02:39:59;;;;;;;;;23.33;23.33;;;;;18.64;65.28;101128.63;5069754;28;45433;-43
2022/06/04 02:42:37;;;;;;;;;26.33;23.00;;;;;18.63;65.69;101145.78;5044475;28;45526;-44
2022/06/04 02:45:08;;;;;;;;;23.33;21.00;;;;;18.61;65.33;101135.13;5068723;28;45772;-43
2022/06/04 02:47:57;;;;;;;;;25.00;24.67;;;;;18.61;65.60;101132.44;5059899;28;45304;-43
2022/06/04 02:50:45;;;;;;;;;21.33;20.33;;;;;18.62;65.61;101127.94;5049038;28;45526;-44
2022/06/04 02:53:11;;;;;;;;;23.67;21.33;;;;;18.61;65.79;101124.34;5044886;28;45422;-44
2022/06/04 02:55:53;;;;;;;;;19.67;16.67;;;;;18.60;65.77;101114.56;5059445;28;67025;-43
2022/06/04 02:58:20;;;;;;;;;23.00;23.00;;;;;18.59;65.55;101102.09;5043939;28;45352;-44
2022/06/04 03:00:51;;;;;;;;;22.00;20.67;;;;;18.60;65.92;101100.25;5057119;28;45670;-44
2022/06/04 03:03:17;;;;;;;;;30.67;25.00;;;;;18.59;65.94;101099.41;5072528;28;47195;-43
2022/06/04 03:05:57;;;;;;;;;20.33;20.33;;;;;18.60;65.93;101095.69;5062487;28;45572;-44
2022/06/04 03:08:23;;;;;;;;;21.00;19.67;;;;;18.60;65.78;101092.16;5063064;28;45265;-43
2022/06/04 03:10:49;;;;;;;;;25.00;25.00;;;;;18.56;65.64;101091.53;5064059;28;45252;-43
2022/06/04 03:13:14;;;;;;;;;27.67;24.00;;;;;18.52;65.94;101084.69;5071059;28;45514;-43
2022/06/04 03:15:40;;;;;;;;;25.33;24.67;;;;;18.53;66.03;101097.19;5061775;28;45335;-44
2022/06/04 03:18:05;;;;;;;;;27.67;22.67;;;;;18.56;65.90;101096.06;5060716;28;45362;-43
2022/06/04 03:20:31;;;;;;;;;19.00;18.67;;;;;18.58;65.73;101088.75;5070158;28;45255;-44
2022/06/04 03:22:56;;;;;;;;;24.67;22.67;;;;;18.58;65.46;101086.91;5061065;28;74383;-44
2022/06/04 03:25:22;;;;;;;;;24.33;24.33;;;;;18.59;65.93;101085.03;5060750;28;45320;-44
2022/06/04 03:27:47;;;;;;;;;22.33;21.67;;;;;18.60;65.68;101098.38;5059943;28;45350;-44
2022/06/04 03:30:13;;;;;;;;;26.00;23.00;;;;;18.60;65.73;101108.31;5066038;28;66131;-44
2022/06/04 03:32:39;;;;;;;;;18.00;18.00;;;;;18.60;65.88;101103.78;5059869;28;46971;-44
2022/06/04 03:35:04;;;;;;;;;24.50;24.00;;;;;18.58;65.87;101081.50;5061001;28;45253;-44
2022/06/04 03:37:30;;;;;;;;;27.33;22.67;;;;;18.58;65.87;101080.66;5057098;28;45246;-44
2022/06/04 03:39:55;;;;;;;;;29.33;26.00;;;;;18.57;66.23;101078.94;5048226;28;64373;-44
2022/06/04 03:42:21;;;;;;;;;24.33;24.00;;;;;18.56;65.88;101082.63;5055181;28;67453;-43
2022/06/04 03:44:49;;;;;;;;;31.67;24.33;;;;;18.57;65.94;101098.66;5059562;28;68229;-43
2022/06/04 03:47:16;;;;;;;;;25.00;25.00;;;;;18.56;66.05;101118.47;5053699;28;45313;-44
2022/06/04 03:49:42;;;;;;;;;24.00;22.00;;;;;18.55;65.88;101126.69;5069935;28;45315;-43
2022/06/04 03:52:08;;;;;;;;;27.00;25.67;;;;;18.55;66.22;101122.16;5057706;28;46628;-43
2022/06/04 04:00:01;;;;;;;;;24.33;24.33;;;;;18.50;66.09;101111.75;5061656;28;45283;-45
2022/06/04 04:02:26;;;;;;;;;23.67;22.67;;;;;18.50;66.32;101119.81;5059185;28;46074;-43
2022/06/04 04:04:52;;;;;;;;;24.67;23.33;;;;;18.50;65.94;101125.22;5059071;28;67889;-43
2022/06/04 04:07:17;;;;;;;;;21.67;21.67;;;;;18.49;66.17;101118.09;5068347;28;62943;-43
2022/06/04 04:09:42;;;;;;;;;24.67;24.00;;;;;18.48;66.35;101115.53;5065439;28;45223;-45
2022/06/04 04:12:08;;;;;;;;;23.00;21.67;;;;;18.44;66.71;101119.44;5057584;28;46925;-43
2022/06/04 04:14:33;;;;;;;;;19.00;19.00;;;;;18.40;66.44;101126.06;5063239;28;64280;-44
2022/06/04 04:16:59;;;;;;;;;25.00;22.33;;;;;18.38;66.57;101150.38;5062110;28;55541;-43
2022/06/04 04:19:28;;;;;;;;;22.67;19.67;;;;;18.38;66.82;101169.25;5067031;28;65750;-43
2022/06/04 04:21:53;;;;;;;;;24.33;24.00;;;;;18.36;66.59;101176.59;5051454;28;47094;-43
2022/06/04 04:24:19;;;;;;;;;21.67;18.67;;;;;18.37;66.35;101177.44;5058398;28;68309;-43
2022/06/04 04:26:44;;;;;;;;;20.67;19.67;;;;;18.40;66.55;101190.69;5063684;28;45420;-43
2022/06/04 04:29:10;;;;;;;;;24.00;22.33;;;;;18.42;67.02;101202.19;5054962;28;69362;-44
2022/06/04 04:31:36;;;;;;;;;25.33;22.67;;;;;18.42;66.15;101196.78;5058969;28;45225;-43
2022/06/04 04:34:02;;;;;;;;;22.33;21.33;;;;;18.42;66.42;101199.50;5063688;28;45304;-43
2022/06/04 04:36:30;;;;;;;;;20.00;18.33;;;;;18.41;66.55;101190.56;5052765;28;45512;-43
2022/06/04 04:38:56;;;;;;;;;20.67;19.00;;;;;18.41;66.61;101190.56;5052752;28;45693;-43
2022/06/04 04:41:21;;;;;;;;;24.00;21.00;;;;;18.44;66.33;101202.94;5059147;28;46392;-44
2022/06/04 04:43:48;;;;;;;;;19.00;18.33;;;;;18.45;66.40;101205.50;5061242;28;45632;-43
2022/06/04 04:46:14;;;;;;;;;20.67;19.33;;;;;18.47;66.65;101200.88;5051197;28;45503;-44
2022/06/04 04:48:40;;;;;;;;;22.67;21.33;;;;;18.50;66.57;101197.09;5067298;28;69547;-49
2022/06/04 04:51:06;;;;;;;;;21.67;20.00;;;;;18.55;66.46;101191.31;5063747;28;45534;-49
2022/06/04 04:53:31;;;;;;;;;23.00;19.67;;;;;18.59;66.50;101196.38;5056623;28;45394;-49
2022/06/04 04:55:56;;;;;;;;;21.00;20.67;;;;;18.58;66.41;101208.09;5061486;28;45408;-50
2022/06/04 04:58:22;;;;;;;;;19.00;18.00;;;;;18.60;66.35;101214.22;5073001;28;45287;-51
2022/06/04 05:00:47;;;;;;;;;26.33;25.67;;;;;18.62;66.41;101220.34;5061456;28;47209;-49
2022/06/04 05:03:13;;;;;;;;;22.67;19.33;;;;;18.63;66.38;101234.66;5041041;28;45557;-48
2022/06/04 05:05:38;;;;;;;;;26.00;22.00;;;;;18.64;66.27;101255.25;5058670;28;45295;-50
2022/06/04 05:08:04;;;;;;;;;23.33;21.00;;;;;18.62;66.38;101255.38;5058067;28;65049;-48
2022/06/04 05:10:29;;;;;;;;;25.33;23.33;;;;;18.65;66.15;101227.34;5059181;28;45637;-49
2022/06/04 05:12:56;;;;;;;;;22.00;19.67;;;;;18.68;66.24;101208.22;5057688;28;63033;-49
2022/06/04 05:15:22;;;;;;;;;28.67;25.33;;;;;18.71;66.33;101197.25;5069889;28;45495;-49
2022/06/04 05:17:48;;;;;;;;;23.00;22.33;;;;;18.72;66.42;101207.03;5058265;28;45402;-52
2022/06/04 05:20:14;;;;;;;;;24.67;20.00;;;;;18.75;66.03;101214.03;5051075;28;45557;-52
2022/06/04 05:22:39;;;;;;;;;19.33;18.33;;;;;18.75;66.19;101206.78;5047715;28;45688;-49
2022/06/04 05:25:05;;;;;;;;;22.00;18.00;;;;;18.77;66.23;101193.19;5052601;28;45349;-49
2022/06/04 05:27:30;;;;;;;;;22.33;22.33;;;;;18.78;66.21;101194.91;5055943;28;45304;-49
2022/06/04 05:29:56;;;;;;;;;20.00;19.33;;;;;18.76;66.01;101178.88;5060621;28;45975;-49
2022/06/04 05:32:22;;;;;;;;;20.00;18.00;;;;;18.75;66.20;101174.47;5058184;28;45271;-49
2022/06/04 05:34:47;;;;;;;;;25.00;22.00;;;;;18.74;66.20;101178.13;5054279;28;64797;-49
2022/06/04 05:37:12;;;;;;;;;23.33;21.67;;;;;18.74;66.00;101183.50;5053049;28;68066;-52
2022/06/04 05:39:38;;;;;;;;;22.33;20.67;;;;;18.74;66.24;101174.59;5057934;28;46354;-49
2022/06/04 05:42:04;;;;;;;;;20.67;20.67;;;;;18.72;66.21;101165.75;5054864;28;64635;-51
2022/06/04 05:44:30;;;;;;;;;24.00;20.00;;;;;18.70;66.38;101173.13;5047878;28;45342;-51
2022/06/04 05:46:55;;;;;;;;;21.33;21.00;;;;;18.72;66.43;101176.53;5057275;28;51433;-50
2022/06/04 05:49:21;;;;;;;;;22.00;19.33;;;;;18.77;66.63;101177.03;5013386;28;46216;-49
2022/06/04 05:51:48;;;;;;;;;21.00;20.33;;;;;18.82;66.27;101166.75;5057920;28;68233;-52
2022/06/04 05:54:13;;;;;;;;;19.33;18.67;;;;;18.82;66.56;101161.34;5062283;28;45467;-51
2022/06/04 05:56:42;;;;;;;;;19.33;19.33;;;;;18.83;66.27;101168.47;5054833;28;45312;-49
2022/06/04 05:59:10;;;;;;;;;24.33;22.67;;;;;18.84;66.41;101189.91;5059135;28;45521;-52
2022/06/04 06:01:38;;;;;;;;;21.00;19.00;;;;;18.83;66.32;101184.63;5070390;28;45494;-52
2022/06/04 06:04:04;;;;;;;;;23.67;21.33;;;;;18.81;66.68;101214.41;5051119;28;45699;-48
2022/06/04 06:06:31;;;;;;;;;21.33;20.33;;;;;18.81;66.69;101262.91;5053990;28;45293;-50
2022/06/04 06:08:59;;;;;;;;;19.33;19.33;;;;;18.76;66.46;101286.66;5059807;28;46443;-51
2022/06/04 06:11:25;;;;;;;;;24.67;21.33;;;;;18.71;67.00;101299.63;5061860;27;45467;-49
2022/06/04 06:13:51;;;;;;;;;23.33;22.00;;;;;18.70;66.70;101272.81;5068531;28;46001;-50
2022/06/04 06:16:20;;;;;;;;;24.33;23.00;;;;;18.72;66.75;101273.53;5065614;28;45480;-49
2022/06/04 06:18:46;;;;;;;;;17.33;15.67;;;;;18.76;66.86;101254.31;5057682;28;46229;-51
2022/06/04 06:21:15;;;;;;;;;22.33;18.67;;;;;18.80;66.68;101247.72;5064452;28;63405;-49
2022/06/04 06:23:41;;;;;;;;;23.33;19.00;;;;;18.85;66.86;101258.13;5063620;28;45331;-50
2022/06/04 06:26:08;;;;;;;;;17.33;17.33;;;;;18.88;66.37;101275.88;5058325;28;45541;-50
2022/06/04 06:28:35;;;;;;;;;21.00;19.67;;;;;18.90;66.44;101272.13;5045468;28;46531;-49
2022/06/04 06:31:01;;;;;;;;;18.67;16.67;;;;;18.95;66.39;101264.53;5058002;28;45267;-48
2022/06/04 06:33:26;;;;;;;;;21.33;21.33;;;;;18.97;66.19;101276.06;5061222;28;45463;-49
2022/06/04 06:35:59;;;;;;;;;23.00;20.67;;;;;18.99;66.14;101282.22;5069554;28;45422;-55
2022/06/04 06:38:25;;;;;;;;;21.00;19.00;;;;;19.03;65.99;101288.19;5054977;28;46306;-48
2022/06/04 06:40:52;;;;;;;;;18.33;18.33;;;;;19.05;66.20;101293.50;5067545;28;45304;-47
2022/06/04 06:43:18;;;;;;;;;21.67;21.00;;;;;19.05;66.24;101286.25;5042073;28;45518;-46
2022/06/04 06:45:44;;;;;;;;;23.00;19.33;;;;;19.06;65.92;101277.19;5069191;28;45488;-47
2022/06/04 06:48:10;;;;;;;;;26.67;21.00;;;;;19.07;66.11;101294.22;5056795;28;46331;-47
2022/06/04 06:50:36;;;;;;;;;20.33;18.33;;;;;19.05;65.98;101302.44;5063886;28;45458;-46
2022/06/04 06:53:02;;;;;;;;;21.67;20.67;;;;;19.05;66.28;101309.66;5065389;28;45535;-48
2022/06/04 06:55:28;;;;;;;;;22.67;21.67;;;;;19.07;66.08;101299.59;5052189;28;45361;-47
2022/06/04 06:57:53;;;;;;;;;21.00;21.00;;;;;19.09;66.06;101286.88;5047855;28;62235;-47
2022/06/04 07:00:18;;;;;;;;;23.33;21.67;;;;;19.11;65.97;101284.91;5061120;28;45441;-48
2022/06/04 07:02:44;;;;;;;;;22.00;19.00;;;;;19.13;66.18;101266.78;5066171;27;45441;-46
2022/06/04 07:05:10;;;;;;;;;26.33;20.33;;;;;19.14;65.72;101273.91;5060739;28;45276;-46
2022/06/04 07:07:35;;;;;;;;;21.67;20.33;;;;;19.14;66.14;101263.97;5058460;28;45277;-51
2022/06/04 07:10:00;;;;;;;;;24.33;22.00;;;;;19.16;66.23;101250.34;5060924;28;45356;-47
2022/06/04 07:12:26;;;;;;;;;24.00;21.33;;;;;19.18;65.71;101243.00;5058218;28;64538;-49
2022/06/04 07:14:51;;;;;;;;;24.67;23.33;;;;;19.18;66.15;101259.19;5081363;27;45473;-49
2022/06/04 07:17:17;;;;;;;;;24.00;23.33;;;;;19.21;65.97;101252.69;5034563;28;47579;-47
2022/06/04 07:19:42;;;;;;;;;19.67;19.67;;;;;19.23;65.93;101246.19;5067670;28;45401;-50
2022/06/04 07:22:09;;;;;;;;;17.00;16.33;;;;;19.24;66.14;101263.22;5060174;28;45226;-52
2022/06/04 07:24:35;;;;;;;;;14.33;14.00;;;;;19.28;65.86;101267.38;5065680;28;45439;-53
2022/06/04 07:27:01;;;;;;;;;24.00;16.67;;;;;19.32;65.76;101249.97;5058420;28;45421;-54
2022/06/04 07:29:26;;;;;;;;;18.67;17.67;;;;;19.37;65.38;101228.88;5054876;28;45328;-55
2022/06/04 07:31:52;;;;;;;;;29.00;22.67;;;;;19.41;65.50;101235.78;5067841;28;45374;-56
2022/06/04 07:34:18;;;;;;;;;24.33;21.33;;;;;19.33;66.39;101255.28;5058104;28;45346;-55
2022/06/04 07:36:45;;;;;;;;;21.33;19.33;;;;;19.24;66.49;101269.50;5051506;28;58381;-54
2022/06/04 07:39:14;;;;;;;;;20.67;18.00;;;;;19.22;66.40;101271.44;5055703;28;45384;-55
2022/06/04 07:41:43;;;;;;;;;25.33;20.67;;;;;19.26;67.07;101272.06;5062499;28;45402;-55
2022/06/04 07:44:09;;;;;;;;;32.00;28.67;;;;;19.29;66.99;101296.06;5054151;28;45450;-56
2022/06/04 07:46:35;;;;;;;;;28.00;25.33;;;;;19.24;67.54;101304.56;5052178;28;45435;-54
2022/06/04 07:49:01;;;;;;;;;26.67;24.00;;;;;19.16;67.18;101298.88;5072237;28;45684;-56
2022/06/04 07:51:28;;;;;;;;;20.67;20.67;;;;;19.14;67.48;101317.88;5063199;28;45531;-56
2022/06/04 07:53:53;;;;;;;;;28.00;27.00;;;;;19.09;67.94;101320.06;5058981;28;45490;-56
2022/06/04 07:56:19;;;;;;;;;21.33;16.00;;;;;19.08;67.54;101310.25;5064789;28;73815;-55
2022/06/04 07:58:46;;;;;;;;;24.00;20.00;;;;;19.13;67.68;101304.53;5061863;28;45529;-56
2022/06/04 08:01:14;;;;;;;;;21.00;17.33;;;;;19.17;67.53;101303.31;5058250;28;45648;-56
2022/06/04 08:03:40;;;;;;;;;22.33;21.33;;;;;19.23;67.40;101293.84;5061538;28;45552;-57
2022/06/04 08:06:06;;;;;;;;;29.33;21.67;;;;;19.29;67.10;101288.00;5066734;28;46910;-56
2022/06/04 08:08:32;;;;;;;;;23.33;20.33;;;;;19.32;67.07;101275.13;5052615;28;45501;-55
2022/06/04 08:10:58;;;;;;;;;21.33;20.00;;;;;19.34;67.20;101256.97;5057469;28;45423;-56
2022/06/04 08:15:49;;;;;;;;;24.00;22.00;;;;;19.45;66.87;101255.25;5058203;28;46143;-55
2022/06/04 08:18:16;;;;;;;;;25.00;23.67;;;;;19.46;67.21;101265.06;5061407;28;45702;-56
2022/06/04 08:20:42;;;;;;;;;22.33;19.67;;;;;19.45;67.11;101266.03;5048047;28;45494;-56
2022/06/04 08:23:08;;;;;;;;;21.00;19.00;;;;;19.49;66.89;101259.44;5058450;28;45566;-56
2022/06/04 08:25:38;;;;;;;;;18.00;16.67;;;;;19.53;66.74;101243.84;5058230;28;46318;-57
2022/06/04 08:28:04;;;;;;;;;24.67;23.33;;;;;19.58;67.41;101272.19;5039254;28;45488;-58
2022/06/04 08:30:29;;;;;;;;;24.00;20.00;;;;;19.63;66.90;101283.47;5063547;28;45472;-58
2022/06/04 08:32:54;;;;;;;;;22.33;21.67;;;;;19.72;66.93;101291.78;5050987;28;45478;-58
2022/06/04 08:35:20;;;;;;;;;26.00;24.00;;;;;20.16;67.38;101290.00;5062768;28;72988;-58
2022/06/04 08:37:45;;;;;;;;;25.00;22.67;;;;;20.86;66.87;101285.06;5057134;28;66216;-58
2022/06/04 08:40:24;;;;;;;;;21.00;20.33;;;;;21.70;65.13;101285.91;5058129;28;53098;-58
2022/06/04 08:43:16;;;;;;;;;23.67;22.67;;;;;22.53;62.48;101293.72;5055334;28;45490;-58
2022/06/04 08:45:42;;;;;;;;;20.00;19.33;;;;;23.20;62.07;101291.09;5044845;28;46395;-51
2022/06/04 08:48:31;;;;;;;;;22.00;21.33;;;;;23.82;60.61;101280.53;5056656;28;66602;-55
2022/06/04 08:50:57;;;;;;;;;17.67;16.67;;;;;24.32;57.61;101279.19;5072964;27;45470;-55
2022/06/04 08:53:27;;;;;;;;;18.00;13.00;;;;;24.94;55.47;101286.56;5059533;28;45426;-52
2022/06/04 08:58:49;;;;;;;;;18.00;16.67;;;;;26.09;56.94;101283.53;5064074;28;45661;-52
2022/06/04 09:01:21;;;;;;;;;21.33;20.00;;;;;26.44;55.13;101278.81;5067001;28;45586;-55
2022/06/04 09:04:01;;;;;;;;;18.33;18.33;;;;;26.83;55.04;101293.63;5041192;28;46028;-56
2022/06/04 09:06:49;;;;;;;;;24.67;22.33;;;;;27.18;52.41;101297.00;5045645;28;46459;-55
2022/06/04 09:09:21;;;;;;;;;15.33;15.33;;;;;27.60;53.61;101304.06;5056284;28;45687;-56
2022/06/04 09:12:05;;;;;;;;;20.00;20.00;;;;;27.95;51.34;101306.47;5058033;28;45491;-55
2022/06/04 09:14:41;;;;;;;;;16.67;16.67;;;;;28.43;50.41;101309.94;5055534;28;45540;-56
2022/06/04 09:17:36;;;;;;;;;16.67;15.00;;;;;28.83;49.56;101313.38;5039353;28;46465;-55
2022/06/04 09:20:04;;;;;;;;;17.33;16.67;;;;;29.25;49.02;101313.81;5058017;28;45353;-56
2022/06/04 09:22:36;;;;;;;;;14.67;14.67;;;;;29.57;46.91;101319.13;5039501;28;45536;-56
2022/06/04 09:25:02;;;;;;;;;14.33;13.67;;;;;29.90;46.70;101310.53;5057344;27;45783;-56
2022/06/04 09:27:46;;;;;;;;;20.67;17.00;;;;;30.30;46.22;101316.47;5043105;28;48264;-55
2022/06/04 09:30:26;;;;;;;;;14.33;14.33;;;;;30.70;44.41;101311.38;5059694;28;45329;-55
2022/06/04 09:33:20;;;;;;;;;16.00;16.00;;;;;30.88;43.33;101308.16;5061269;28;45323;-56
2022/06/04 09:35:46;;;;;;;;;20.33;17.67;;;;;31.23;43.46;101321.13;5054383;28;45439;-57
2022/06/04 09:38:25;;;;;;;;;19.33;14.67;;;;;31.54;40.65;101309.66;5055112;28;69574;-57
2022/06/04 09:41:06;;;;;;;;;8.33;7.33;;;;;31.83;41.80;101305.78;5052625;28;47253;-57
2022/06/04 09:43:32;;;;;;;;;15.00;14.00;;;;;31.99;40.72;101304.59;5061461;28;45454;-57
2022/06/04 09:46:00;;;;;;;;;14.00;14.00;;;;;32.17;40.99;101303.16;5062981;28;45321;-57
2022/06/04 09:48:29;;;;;;;;;13.33;13.33;;;;;32.43;41.12;101299.59;5062067;28;46997;-57
2022/06/04 09:50:56;;;;;;;;;15.33;15.00;;;;;32.55;39.55;101299.81;5051585;28;45791;-57
2022/06/04 09:53:24;;;;;;;;;13.00;13.00;;;;;32.71;39.85;101305.97;5069816;28;45340;-57
2022/06/04 09:55:53;;;;;;;;;15.00;14.00;;;;;32.83;37.99;101312.59;5054440;28;45317;-57
2022/06/04 09:58:27;;;;;;;;;12.33;11.33;;;;;32.99;37.50;101303.03;5054109;28;46988;-57
2022/06/04 10:00:59;;;;;;;;;15.33;14.67;;;;;33.10;37.58;101309.78;5055719;28;45274;-56
2022/06/04 10:03:24;;;;;;;;;13.00;11.33;;;;;33.20;37.85;101307.44;5060057;28;45166;-56
2022/06/04 10:05:53;;;;;;;;;13.00;13.00;;;;;33.35;37.24;101309.13;5069610;28;45496;-57
2022/06/04 10:08:21;;;;;;;;;12.33;12.33;;;;;33.55;36.45;101314.59;5067774;28;46289;-57
2022/06/04 10:10:47;;;;;;;;;16.67;11.67;;;;;33.65;36.16;101312.22;5055344;28;45364;-57
2022/06/04 10:16:14;;;;;;;;;12.00;12.00;;;;;33.77;36.04;101309.63;5038230;28;45277;-57
2022/06/04 10:18:40;;;;;;;;;19.67;15.67;;;;;33.85;35.06;101314.91;5056267;28;45348;-57
2022/06/04 10:21:20;;;;;;;;;22.33;20.33;;;;;33.91;35.71;101316.78;5050704;28;45365;-57
2022/06/04 10:23:48;;;;;;;;;18.67;17.00;;;;;33.97;34.26;101315.06;5056930;28;45316;-56
2022/06/04 10:26:38;;;;;;;;;8.33;8.33;;;;;34.08;34.13;101302.47;5049647;28;45470;-57
2022/06/04 10:29:36;;;;;;;;;8.33;8.33;;;;;34.07;33.25;101309.91;5056762;28;46199;-56
2022/06/04 10:32:14;;;;;;;;;17.00;15.00;;;;;34.02;31.68;101312.47;5058448;28;45261;-56
2022/06/04 10:35:01;;;;;;;;;25.00;24.00;;;;;33.92;32.79;101303.84;5063557;28;45700;-57
2022/06/04 10:37:44;;;;;;;;;15.67;15.67;;;;;34.00;32.58;101303.56;5051185;28;45693;-57
2022/06/04 10:40:44;;;;;;;;;26.67;21.67;;;;;34.14;32.75;101293.31;5042620;28;46968;-56
2022/06/04 10:43:40;;;;;;;;;23.33;20.33;;;;;34.32;32.47;101295.34;5041428;28;45330;-56
2022/06/04 10:46:05;;;;;;;;;23.00;17.67;;;;;34.33;32.10;101294.28;5058396;28;45170;-55
2022/06/04 10:48:43;;;;;;;;;6.00;5.33;;;;;34.31;31.59;101285.34;5055979;28;45562;-55
2022/06/04 10:51:33;;;;;;;;;53.00;39.00;;;;;34.39;32.00;101289.75;5065024;28;45409;-56
2022/06/04 10:54:33;;;;;;;;;10.33;10.33;;;;;34.41;31.97;101290.41;5049208;28;45413;-55
2022/06/04 10:57:13;;;;;;;;;54.00;40.67;;;;;34.43;31.33;101293.75;5060801;28;45414;-55
2022/06/04 10:59:50;;;;;;;;;103.50;85.50;;;;;34.35;31.53;101289.38;5054050;28;45189;-55
2022/06/04 11:02:16;;;;;;;;;43.00;34.67;;;;;34.24;31.39;101287.31;5060670;28;46319;-56
2022/06/04 11:04:52;;;;;;;;;75.50;56.25;;;;;34.07;31.28;101287.84;5059924;28;45208;-55
2022/06/04 11:07:42;;;;;;;;;118.50;85.75;;;;;33.87;31.56;101278.81;5060935;28;45403;-54
2022/06/04 11:10:14;;;;;;;;;64.25;48.25;;;;;33.68;31.11;101281.44;5062549;28;45646;-55
2022/06/04 11:12:57;;;;;;;;;112.75;85.00;;;;;33.45;31.98;101291.09;5059504;28;45526;-54
2022/06/04 11:15:27;;;;;;;;;70.00;52.25;;;;;33.28;32.40;101282.44;5042812;28;45261;-55
2022/06/04 11:18:04;;;;;;;;;66.25;48.75;;;;;33.12;32.18;101278.19;5058931;28;45504;-56
2022/06/04 11:20:31;;;;;;;;;124.25;95.00;;;;;32.98;32.84;101282.03;5066281;28;45343;-56
2022/06/04 11:23:29;;;;;;;;;141.75;101.50;;;;;32.73;32.87;101266.19;5047409;28;46267;-56
2022/06/04 11:25:58;;;;;;;;;174.50;122.00;;;;;32.52;32.60;101266.41;5052528;28;45485;-55
2022/06/04 11:28:27;;;;;;;;;24.33;21.67;;;;;32.30;32.61;101269.34;5059962;28;45232;-54
2022/06/04 11:31:27;;;;;;;;;198.50;142.25;;;;;32.11;33.34;101263.56;5060130;28;45188;-54
2022/06/04 11:34:37;;;;;;;;;164.25;112.00;;;;;31.83;33.73;101269.19;5072735;28;45458;-54
2022/06/04 11:37:34;;;;;;;;;197.25;133.25;;;;;31.54;34.19;101264.81;5055360;28;45780;-55
2022/06/04 11:40:15;;;;;;;;;159.50;110.50;;;;;31.33;33.96;101264.75;5040364;28;45409;-54
2022/06/04 11:42:59;;;;;;;;;143.00;95.50;;;;;31.11;34.63;101255.75;5052266;28;45419;-55